createdAt,value
2019-06-26T00:02:11.809Z,18.79
2019-06-26T00:04:42.193Z,18.78
2019-06-26T00:07:12.628Z,18.81
2019-06-26T00:09:42.984Z,18.78
2019-06-26T00:12:13.412Z,18.71
2019-06-26T00:14:43.879Z,18.69
2019-06-26T00:17:14.233Z,18.71
2019-06-26T00:19:44.585Z,18.74
2019-06-26T00:22:14.969Z,18.80
2019-06-26T00:24:45.409Z,19.02
2019-06-26T00:27:15.743Z,19.05
2019-06-26T00:29:46.163Z,19.11
2019-06-26T00:32:16.509Z,19.15
2019-06-26T00:34:46.845Z,19.08
2019-06-26T00:37:17.232Z,19.23
2019-06-26T00:39:47.606Z,18.95
2019-06-26T00:42:17.965Z,18.98
2019-06-26T00:44:48.462Z,19.05
2019-06-26T00:47:18.822Z,18.89
2019-06-26T00:49:49.265Z,18.86
2019-06-26T00:52:20.905Z,18.76
2019-06-26T00:54:51.377Z,18.79
2019-06-26T00:57:21.719Z,18.73
2019-06-26T00:59:52.264Z,18.70
2019-06-26T01:02:22.693Z,18.76
2019-06-26T01:04:54.743Z,18.75
2019-06-26T01:07:25.249Z,18.90
2019-06-26T01:09:55.600Z,19.01
2019-06-26T01:12:25.968Z,18.93
2019-06-26T01:14:56.529Z,19.07
2019-06-26T01:17:26.888Z,19.04
2019-06-26T01:19:57.240Z,18.99
2019-06-26T01:22:27.643Z,19.11
2019-06-26T01:24:58.013Z,19.16
2019-06-26T01:27:28.765Z,19.11
2019-06-26T01:29:59.255Z,19.17
2019-06-26T01:32:29.602Z,19.17
2019-06-26T01:34:59.951Z,19.16
2019-06-26T01:37:30.364Z,19.12
2019-06-26T01:40:00.714Z,19.14
2019-06-26T01:42:31.166Z,19.23
2019-06-26T01:45:03.635Z,19.17
2019-06-26T01:47:33.978Z,19.21
2019-06-26T01:50:04.437Z,19.13
2019-06-26T01:52:35.960Z,18.98
2019-06-26T01:55:06.596Z,18.75
2019-06-26T01:57:36.979Z,18.55
2019-06-26T02:00:07.823Z,18.79
2019-06-26T02:02:38.246Z,18.84
2019-06-26T02:05:08.995Z,18.92
2019-06-26T02:07:39.360Z,18.82
2019-06-26T02:10:10.209Z,18.86
2019-06-26T02:12:40.610Z,18.93
2019-06-26T02:15:11.081Z,18.89
2019-06-26T02:17:41.433Z,18.87
2019-06-26T02:20:11.998Z,18.99
2019-06-26T02:22:42.333Z,19.09
2019-06-26T02:25:12.993Z,19.02
2019-06-26T02:27:43.478Z,18.95
2019-06-26T02:30:14.450Z,18.93
2019-06-26T02:32:44.803Z,18.92
2019-06-26T02:35:15.335Z,18.83
2019-06-26T02:37:45.679Z,18.76
2019-06-26T02:40:16.555Z,18.79
2019-06-26T02:42:46.932Z,18.97
2019-06-26T02:45:17.485Z,18.97
2019-06-26T02:47:47.832Z,19.00
2019-06-26T02:50:18.353Z,18.92
2019-06-26T02:52:49.724Z,18.83
2019-06-26T02:55:20.146Z,18.88
2019-06-26T02:57:50.505Z,18.87
2019-06-26T03:00:20.857Z,18.85
2019-06-26T03:02:51.275Z,19.02
2019-06-26T03:05:21.766Z,19.12
2019-06-26T03:07:52.177Z,19.09
2019-06-26T03:10:22.615Z,19.08
2019-06-26T03:12:52.974Z,19.10
2019-06-26T03:15:23.318Z,19.10
2019-06-26T03:17:55.574Z,19.29
2019-06-26T03:20:28.686Z,19.26
2019-06-26T03:22:59.031Z,19.25
2019-06-26T03:25:29.511Z,19.10
2019-06-26T03:27:59.935Z,19.12
2019-06-26T03:30:30.289Z,19.17
2019-06-26T03:33:03.264Z,19.06
2019-06-26T03:35:33.635Z,19.11
2019-06-26T03:38:03.997Z,19.23
2019-06-26T03:40:34.433Z,19.24
2019-06-26T03:43:04.807Z,19.34
2019-06-26T03:45:35.145Z,19.46
2019-06-26T03:48:05.836Z,19.64
2019-06-26T03:50:36.172Z,19.53
2019-06-26T03:53:07.673Z,19.43
2019-06-26T03:55:38.141Z,19.59
2019-06-26T03:58:08.482Z,19.51
2019-06-26T04:00:43.115Z,19.62
2019-06-26T04:03:13.512Z,19.70
2019-06-26T04:05:43.849Z,19.64
2019-06-26T04:08:14.195Z,19.67
2019-06-26T04:10:44.625Z,19.69
2019-06-26T04:13:15.000Z,19.68
2019-06-26T04:15:45.352Z,19.73
2019-06-26T04:18:15.745Z,19.82
2019-06-26T04:20:46.092Z,20.00
2019-06-26T04:23:16.452Z,20.10
2019-06-26T04:25:46.878Z,20.14
2019-06-26T04:28:17.206Z,20.12
2019-06-26T04:30:47.564Z,20.23
2019-06-26T04:33:17.959Z,20.11
2019-06-26T04:35:48.310Z,20.22
2019-06-26T04:38:18.769Z,20.06
2019-06-26T04:40:49.207Z,20.12
2019-06-26T04:43:19.552Z,20.36
2019-06-26T04:45:58.141Z,20.49
2019-06-26T04:48:21.963Z,20.62
2019-06-26T04:50:52.363Z,20.92
2019-06-26T04:53:23.794Z,21.25
2019-06-26T04:55:55.932Z,21.70
2019-06-26T04:58:26.277Z,22.17
2019-06-26T05:00:56.624Z,22.06
2019-06-26T05:03:27.010Z,22.33
2019-06-26T05:05:57.356Z,22.28
2019-06-26T05:08:27.691Z,22.20
2019-06-26T05:10:58.132Z,22.30
2019-06-26T05:13:31.302Z,22.66
2019-06-26T05:16:14.501Z,22.96
2019-06-26T05:18:33.727Z,23.21
2019-06-26T05:21:04.194Z,23.39
2019-06-26T05:23:34.607Z,23.27
2019-06-26T05:26:05.047Z,23.29
2019-06-26T05:28:35.386Z,23.28
2019-06-26T05:31:05.719Z,23.23
2019-06-26T05:33:36.124Z,22.89
2019-06-26T05:36:06.475Z,23.21
2019-06-26T05:38:36.824Z,23.65
2019-06-26T05:41:07.359Z,23.59
2019-06-26T05:43:37.908Z,23.49
2019-06-26T05:46:08.272Z,23.89
2019-06-26T05:48:38.675Z,24.53
2019-06-26T05:51:09.051Z,24.53
2019-06-26T05:53:40.529Z,24.58
2019-06-26T05:56:10.980Z,24.39
2019-06-26T05:58:41.335Z,23.93
2019-06-26T06:01:11.812Z,23.47
2019-06-26T06:03:42.235Z,23.34
2019-06-26T06:06:12.707Z,23.38
2019-06-26T06:08:43.200Z,23.30
2019-06-26T06:11:13.662Z,23.15
2019-06-26T06:13:44.094Z,23.19
2019-06-26T06:16:14.446Z,23.11
2019-06-26T06:18:44.832Z,23.21
2019-06-26T06:21:15.173Z,23.18
2019-06-26T06:23:45.687Z,23.19
2019-06-26T06:26:16.147Z,23.28
2019-06-26T06:28:46.498Z,23.42
2019-06-26T06:31:16.837Z,23.35
2019-06-26T06:33:47.266Z,23.42
2019-06-26T06:36:17.705Z,23.47
2019-06-26T06:38:48.085Z,23.56
2019-06-26T06:41:18.626Z,23.55
2019-06-26T06:43:48.980Z,23.42
2019-06-26T06:46:19.430Z,23.58
2019-06-26T06:48:49.840Z,24.23
2019-06-26T06:51:20.194Z,24.51
2019-06-26T06:53:51.472Z,24.23
2019-06-26T06:56:21.910Z,23.99
2019-06-26T06:58:52.320Z,24.07
2019-06-26T07:01:22.722Z,24.39
2019-06-26T07:03:53.105Z,24.46
2019-06-26T07:06:23.451Z,24.50
2019-06-26T07:08:53.792Z,24.45
2019-06-26T07:11:24.205Z,24.47
2019-06-26T07:13:54.556Z,24.34
2019-06-26T07:16:24.919Z,23.87
2019-06-26T07:18:55.301Z,23.88
2019-06-26T07:21:25.666Z,24.00
2019-06-26T07:23:56.023Z,23.89
2019-06-26T07:26:26.463Z,23.79
2019-06-26T07:28:56.850Z,24.21
2019-06-26T07:31:27.175Z,24.34
2019-06-26T07:33:57.578Z,25.12
2019-06-26T07:36:27.916Z,25.38
2019-06-26T07:38:58.273Z,25.27
2019-06-26T07:41:28.700Z,24.98
2019-06-26T07:43:59.057Z,24.52
2019-06-26T07:46:29.427Z,24.19
2019-06-26T07:48:59.832Z,23.86
2019-06-26T07:51:30.163Z,23.79
2019-06-26T07:54:01.720Z,23.88
2019-06-26T07:56:32.327Z,24.01
2019-06-26T07:59:02.680Z,24.79
2019-06-26T08:01:33.028Z,25.01
2019-06-26T08:04:03.444Z,25.08
2019-06-26T08:06:33.803Z,25.52
2019-06-26T08:09:05.170Z,26.11
2019-06-26T08:11:35.637Z,26.25
2019-06-26T08:14:06.000Z,25.92
2019-06-26T08:16:36.407Z,25.94
2019-06-26T08:19:06.825Z,26.40
2019-06-26T08:21:37.205Z,26.60
2019-06-26T08:24:07.620Z,26.43
2019-06-26T08:26:38.060Z,26.46
2019-06-26T08:29:08.429Z,26.46
2019-06-26T08:31:38.785Z,26.30
2019-06-26T08:34:09.165Z,26.24
2019-06-26T08:36:39.533Z,26.11
2019-06-26T08:39:14.172Z,26.00
2019-06-26T08:41:44.547Z,25.84
2019-06-26T08:44:14.887Z,25.71
2019-06-26T08:46:45.336Z,25.42
2019-06-26T08:49:25.760Z,25.76
2019-06-26T08:51:47.760Z,25.89
2019-06-26T08:54:19.160Z,26.01
2019-06-26T08:56:49.523Z,26.10
2019-06-26T08:59:19.863Z,26.62
2019-06-26T09:01:50.332Z,26.81
2019-06-26T09:04:20.686Z,26.41
2019-06-26T09:06:51.046Z,26.75
2019-06-26T09:09:21.425Z,26.93
2019-06-26T09:11:51.765Z,26.73
2019-06-26T09:14:22.148Z,26.73
2019-06-26T09:16:52.652Z,26.89
2019-06-26T09:19:23.023Z,26.74
2019-06-26T09:21:53.392Z,26.36
2019-06-26T09:24:26.545Z,26.39
2019-06-26T09:26:56.885Z,26.48
2019-06-26T09:29:27.251Z,26.40
2019-06-26T09:32:00.824Z,25.98
2019-06-26T09:34:31.143Z,25.99
2019-06-26T09:37:01.505Z,25.80
2019-06-26T09:39:31.903Z,25.83
2019-06-26T09:42:02.240Z,25.68
2019-06-26T09:44:32.572Z,25.84
2019-06-26T09:47:02.992Z,26.47
2019-06-26T09:49:33.349Z,27.12
2019-06-26T09:52:03.695Z,27.37
2019-06-26T09:54:35.204Z,27.42
2019-06-26T09:57:05.559Z,26.87
2019-06-26T09:59:35.906Z,26.12
2019-06-26T10:02:06.381Z,26.11
2019-06-26T10:04:36.730Z,26.15
2019-06-26T10:07:07.108Z,26.29
2019-06-26T10:09:37.527Z,26.14
2019-06-26T10:12:07.978Z,26.12
2019-06-26T10:14:47.199Z,26.02
2019-06-26T10:17:10.469Z,26.04
2019-06-26T10:19:40.803Z,25.85
2019-06-26T10:22:11.157Z,25.75
2019-06-26T10:24:41.531Z,26.13
2019-06-26T10:27:11.864Z,26.56
2019-06-26T10:29:42.212Z,27.20
2019-06-26T10:32:12.628Z,27.61
2019-06-26T10:34:42.976Z,28.07
2019-06-26T10:37:13.319Z,27.74
2019-06-26T10:39:43.714Z,27.22
2019-06-26T10:42:14.061Z,27.44
2019-06-26T10:44:44.411Z,27.61
2019-06-26T10:47:14.861Z,27.87
2019-06-26T10:49:45.188Z,27.47
2019-06-26T10:52:15.555Z,26.95
2019-06-26T10:54:46.845Z,27.79
2019-06-26T10:57:17.200Z,28.69
2019-06-26T10:59:47.547Z,29.26
2019-06-26T11:02:17.963Z,29.75
2019-06-26T11:04:48.318Z,30.14
2019-06-26T11:07:18.675Z,29.87
2019-06-26T11:09:49.072Z,28.84
2019-06-26T11:12:19.410Z,28.71
2019-06-26T11:14:49.757Z,27.80
2019-06-26T11:17:20.172Z,27.21
2019-06-26T11:19:50.520Z,27.13
2019-06-26T11:22:20.857Z,26.94
2019-06-26T11:24:51.241Z,27.49
2019-06-26T11:27:21.643Z,27.30
2019-06-26T11:29:51.987Z,26.79
2019-06-26T11:32:22.415Z,26.90
2019-06-26T11:34:52.749Z,27.11
2019-06-26T11:37:23.358Z,26.96
2019-06-26T11:39:56.035Z,26.79
2019-06-26T11:42:26.387Z,26.67
2019-06-26T11:44:56.708Z,27.24
2019-06-26T11:47:27.728Z,27.47
2019-06-26T11:50:00.264Z,27.57
2019-06-26T11:52:30.101Z,27.21
2019-06-26T11:55:03.343Z,26.91
2019-06-26T11:57:33.660Z,26.57
2019-06-26T12:00:04.904Z,26.09
2019-06-26T12:02:35.378Z,26.18
2019-06-26T12:05:06.771Z,26.23
2019-06-26T12:07:37.135Z,25.99
2019-06-26T12:10:08.478Z,25.87
2019-06-26T12:12:38.956Z,25.55
2019-06-26T12:15:09.598Z,25.44
2019-06-26T12:17:40.028Z,25.47
2019-06-26T12:20:18.740Z,25.30
2019-06-26T12:22:42.605Z,25.21
2019-06-26T12:25:14.604Z,24.97
2019-06-26T12:27:45.055Z,24.43
2019-06-26T12:30:15.863Z,24.22
2019-06-26T12:33:01.529Z,24.07
2019-06-26T12:35:18.362Z,23.76
2019-06-26T12:37:48.674Z,23.66
2019-06-26T12:40:19.246Z,23.66
2019-06-26T12:42:49.677Z,23.64
2019-06-26T12:45:20.909Z,23.48
2019-06-26T12:47:51.725Z,23.53
2019-06-26T12:50:34.456Z,23.62
2019-06-26T12:52:56.208Z,23.67
2019-06-26T12:55:26.739Z,23.82
2019-06-26T12:58:11.735Z,23.75
2019-06-26T13:00:29.271Z,23.91
2019-06-26T13:02:59.794Z,23.88
2019-06-26T13:05:30.116Z,23.75
2019-06-26T13:08:00.448Z,23.25
2019-06-26T13:10:30.843Z,23.27
2019-06-26T13:13:01.180Z,23.61
2019-06-26T13:15:31.597Z,23.56
2019-06-26T13:18:02.079Z,23.47
2019-06-26T13:20:51.207Z,23.82
2019-06-26T13:23:07.024Z,24.13
2019-06-26T13:25:37.397Z,24.36
2019-06-26T13:28:07.731Z,24.56
2019-06-26T13:30:39.621Z,24.76
2019-06-26T13:33:10.033Z,24.95
2019-06-26T13:35:40.366Z,25.14
2019-06-26T13:38:10.708Z,25.03
2019-06-26T13:40:41.370Z,24.26
2019-06-26T13:43:11.935Z,24.32
2019-06-26T13:45:42.507Z,24.46
2019-06-26T13:48:13.074Z,24.57
2019-06-26T13:50:43.437Z,24.53
2019-06-26T13:53:13.774Z,24.47
2019-06-26T13:55:44.262Z,24.50
2019-06-26T13:58:14.582Z,24.58
2019-06-26T14:00:44.911Z,24.51
2019-06-26T14:03:15.442Z,24.57
2019-06-26T14:05:45.786Z,24.53
2019-06-26T14:08:16.194Z,24.61
2019-06-26T14:10:46.529Z,24.64
2019-06-26T14:13:19.547Z,24.73
2019-06-26T14:15:49.953Z,24.53
2019-06-26T14:18:20.327Z,24.52
2019-06-26T14:20:50.756Z,24.46
2019-06-26T14:23:24.806Z,24.46
2019-06-26T14:25:55.133Z,24.46
2019-06-26T14:28:25.502Z,24.65
2019-06-26T14:30:56.066Z,24.72
2019-06-26T14:33:26.420Z,24.49
2019-06-26T14:35:56.778Z,24.32
2019-06-26T14:38:27.141Z,24.36
2019-06-26T14:40:57.465Z,24.36
2019-06-26T14:43:32.755Z,24.53
2019-06-26T14:46:03.187Z,24.70
2019-06-26T14:48:33.532Z,24.73
2019-06-26T14:51:03.861Z,24.51
2019-06-26T14:53:34.248Z,24.00
2019-06-26T14:56:04.710Z,23.97
2019-06-26T14:58:36.398Z,23.76
2019-06-26T15:01:07.071Z,23.48
2019-06-26T15:03:37.412Z,23.22
2019-06-26T15:06:16.360Z,23.01
2019-06-26T15:08:39.876Z,22.76
2019-06-26T15:11:10.287Z,22.61
2019-06-26T15:13:40.775Z,22.56
2019-06-26T15:16:11.204Z,22.35
2019-06-26T15:18:41.539Z,21.96
2019-06-26T15:21:11.903Z,21.78
2019-06-26T15:23:42.279Z,21.57
2019-06-26T15:26:13.883Z,21.73
2019-06-26T15:31:28.780Z,21.59
2019-06-26T15:33:59.569Z,21.15
2019-06-26T15:36:30.114Z,21.00
2019-06-26T15:39:00.625Z,21.05
2019-06-26T15:41:31.055Z,21.18
2019-06-26T15:44:01.533Z,21.11
2019-06-26T15:46:32.245Z,20.75
2019-06-26T15:49:02.760Z,20.67
2019-06-26T15:51:33.262Z,20.77
2019-06-26T15:54:04.031Z,20.93
2019-06-26T15:56:34.825Z,20.81
2019-06-26T15:59:05.583Z,20.73
2019-06-26T16:01:36.124Z,20.73
2019-06-26T16:04:06.999Z,20.77
2019-06-26T16:06:38.390Z,20.78
2019-06-26T16:09:08.978Z,20.80
2019-06-26T16:11:39.391Z,20.82
2019-06-26T16:14:09.818Z,20.61
2019-06-26T16:16:42.049Z,20.80
2019-06-26T16:19:16.296Z,20.89
2019-06-26T16:21:46.685Z,20.61
2019-06-26T16:24:17.598Z,20.37
2019-06-26T16:26:48.586Z,20.38
2019-06-26T16:29:19.023Z,20.35
2019-06-26T16:31:50.116Z,20.46
2019-06-26T16:34:20.526Z,20.42
2019-06-26T16:36:50.962Z,20.47
2019-06-26T16:39:23.349Z,20.62
2019-06-26T16:41:53.844Z,20.67
2019-06-26T16:44:30.837Z,20.60
2019-06-26T16:47:01.535Z,20.34
2019-06-26T16:49:32.087Z,20.11
2019-06-26T16:52:04.190Z,20.18
2019-06-26T16:54:34.922Z,20.35
2019-06-26T16:57:05.927Z,20.41
2019-06-26T16:59:36.468Z,20.49
2019-06-26T17:02:07.281Z,20.56
2019-06-26T17:04:37.970Z,20.48
2019-06-26T17:07:08.364Z,20.44
2019-06-26T17:09:38.799Z,20.58
2019-06-26T17:12:09.323Z,20.48
2019-06-26T17:14:39.837Z,20.29
2019-06-26T17:17:10.372Z,20.14
2019-06-26T17:19:40.824Z,20.12
2019-06-26T17:22:29.889Z,20.11
2019-06-26T17:25:19.650Z,20.02
2019-06-26T17:28:09.278Z,19.88
2019-06-26T17:30:43.682Z,19.85
2019-06-26T17:33:14.207Z,19.89
2019-06-26T17:35:45.057Z,19.89
2019-06-26T17:38:16.094Z,19.85
2019-06-26T17:40:46.644Z,19.91
2019-06-26T17:43:17.330Z,20.05
2019-06-26T17:45:48.353Z,20.04
2019-06-26T17:48:18.797Z,20.02
2019-06-26T17:50:49.320Z,20.00
2019-06-26T17:53:22.019Z,19.97
2019-06-26T17:55:52.199Z,19.89
2019-06-26T17:58:25.385Z,19.91
2019-06-26T18:00:54.824Z,19.96
2019-06-26T18:03:25.353Z,20.01
2019-06-26T18:05:55.893Z,19.92
2019-06-26T18:08:26.385Z,19.77
2019-06-26T18:10:56.829Z,19.82
2019-06-26T18:13:27.615Z,19.85
2019-06-26T18:15:58.089Z,19.73
2019-06-26T18:18:28.546Z,19.67
2019-06-26T18:20:59.170Z,19.66
2019-06-26T18:23:38.317Z,19.51
2019-06-26T18:26:12.334Z,19.45
2019-06-26T18:28:36.257Z,19.55
2019-06-26T18:31:06.796Z,19.19
2019-06-26T18:33:37.777Z,19.28
2019-06-26T18:36:08.395Z,19.29
2019-06-26T18:38:38.921Z,19.22
2019-06-26T18:41:12.481Z,19.24
2019-06-26T18:43:50.348Z,19.27
2019-06-26T18:46:25.329Z,19.29
2019-06-26T18:48:56.010Z,19.17
2019-06-26T18:51:27.088Z,19.10
2019-06-26T18:54:00.992Z,19.08
2019-06-26T18:56:30.974Z,18.95
2019-06-26T18:59:02.352Z,18.99
2019-06-26T19:01:33.568Z,18.89
2019-06-26T19:04:12.696Z,18.67
2019-06-26T19:06:59.614Z,18.22
2019-06-26T19:09:17.690Z,18.26
2019-06-26T19:11:50.925Z,18.45
2019-06-26T19:14:24.742Z,18.54
2019-06-26T19:16:56.627Z,18.56
2019-06-26T19:19:29.092Z,18.46
2019-06-26T19:22:07.959Z,18.44
2019-06-26T19:24:42.944Z,18.24
2019-06-26T19:27:13.953Z,18.05
2019-06-26T19:29:48.087Z,18.09
2019-06-26T19:32:18.918Z,18.25
2019-06-26T19:34:49.413Z,18.29
2019-06-26T19:37:19.878Z,18.19
2019-06-26T19:39:50.515Z,18.06
2019-06-26T19:42:21.601Z,18.13
2019-06-26T19:44:53.277Z,18.06
2019-06-26T19:47:24.115Z,18.21
2019-06-26T19:49:55.080Z,18.12
2019-06-26T19:52:25.489Z,17.88
2019-06-26T19:54:56.088Z,17.64
2019-06-26T19:57:26.865Z,17.68
2019-06-26T19:59:57.950Z,17.65
2019-06-26T20:02:28.529Z,17.78
2019-06-26T20:05:33.608Z,17.87
2019-06-26T20:08:54.458Z,18.10
2019-06-26T20:12:26.539Z,17.98
2019-06-26T20:16:43.674Z,17.91
2019-06-26T20:21:23.876Z,17.96
2019-06-26T20:35:09.887Z,17.71
2019-06-26T20:38:10.686Z,17.58
2019-06-26T20:41:22.606Z,17.27
2019-06-26T20:44:39.707Z,17.40
2019-06-26T20:47:50.207Z,17.57
2019-06-26T20:50:55.493Z,17.52
2019-06-26T20:53:55.703Z,17.59
2019-06-26T20:57:23.267Z,17.57
2019-06-26T21:06:00.802Z,17.38
2019-06-26T21:14:12.538Z,17.76
2019-06-26T21:17:16.522Z,17.75
2019-06-26T21:20:31.939Z,17.69
2019-06-26T21:29:55.544Z,17.57
2019-06-26T21:32:59.941Z,17.64
2019-06-26T21:39:05.843Z,17.35
2019-06-26T21:41:46.118Z,17.44
2019-06-26T21:44:58.991Z,17.36
2019-06-26T21:47:45.376Z,17.47
2019-06-26T21:50:28.717Z,17.43
2019-06-26T21:53:00.348Z,17.47
2019-06-26T21:55:34.613Z,17.38
2019-06-26T21:58:03.482Z,17.52
2019-06-26T22:00:37.462Z,17.51
2019-06-26T22:03:08.961Z,17.37
2019-06-26T22:05:39.583Z,17.43
2019-06-26T22:08:11.738Z,17.38
2019-06-26T22:10:42.661Z,17.38
2019-06-26T22:13:13.598Z,17.47
2019-06-26T22:15:45.843Z,17.54
2019-06-26T22:18:16.383Z,17.60
2019-06-26T22:20:47.644Z,17.65
2019-06-26T22:23:19.584Z,17.58
2019-06-26T22:25:51.374Z,17.62
2019-06-26T22:28:28.275Z,17.63
2019-06-26T22:30:59.701Z,17.58
2019-06-26T22:33:30.696Z,17.61
2019-06-26T22:36:02.245Z,17.67
2019-06-26T22:38:32.653Z,17.68
2019-06-26T22:41:03.189Z,17.68
2019-06-26T22:43:33.720Z,17.72
2019-06-26T22:46:04.210Z,17.77
2019-06-26T22:48:35.155Z,17.68
2019-06-26T22:51:05.755Z,17.86
2019-06-26T22:53:36.232Z,17.87
2019-06-26T22:56:08.289Z,17.85
2019-06-26T22:58:39.214Z,17.86
2019-06-26T23:01:09.861Z,17.74
2019-06-26T23:03:40.637Z,17.86
2019-06-26T23:06:11.191Z,17.73
2019-06-26T23:08:41.589Z,17.71
2019-06-26T23:11:12.778Z,17.49
2019-06-26T23:13:44.142Z,17.71
2019-06-26T23:16:14.947Z,17.64
2019-06-26T23:18:45.444Z,17.66
2019-06-26T23:21:15.937Z,17.78
2019-06-26T23:23:46.780Z,17.71
2019-06-26T23:26:23.988Z,17.65
2019-06-26T23:28:50.701Z,17.60
2019-06-26T23:31:21.095Z,17.65
2019-06-26T23:33:52.373Z,17.65
2019-06-26T23:36:22.839Z,17.72
2019-06-26T23:38:53.621Z,17.73
2019-06-26T23:41:24.568Z,17.87
2019-06-26T23:43:55.327Z,17.88
2019-06-26T23:46:26.230Z,17.90
2019-06-26T23:48:57.563Z,17.91
2019-06-26T23:51:28.054Z,17.85
2019-06-26T23:53:58.560Z,17.89
2019-06-26T23:56:39.935Z,17.80
2019-06-26T23:59:02.036Z,17.70
